Time;durP1;ratioP1;P1;durP2;ratioP2;P2;SDS_P1;SDS_P2;PMS_P1;PMS_P2;Temp;Humidity;BMP_temperature;BMP_pressure;BME280_temperature;BME280_humidity;BME280_pressure;Samples;Min_cycle;Max_cycle;Signal;HPM_P1;HPM_P2
2023/02/08 00:01:54;;;;;;;42.22;21.02;;;-0.50;99.90;;;;;;5105786;28;20239;-65
2023/02/08 00:04:20;;;;;;;41.08;20.52;;;-0.50;99.90;;;;;;5110088;28;20038;-64
2023/02/08 00:06:46;;;;;;;42.03;21.02;;;-0.50;99.90;;;;;;5092075;28;20048;-64
2023/02/08 00:09:11;;;;;;;44.38;22.52;;;-0.60;99.90;;;;;;5091525;28;20058;-64
2023/02/08 00:11:37;;;;;;;47.28;22.35;;;-0.60;99.90;;;;;;5087482;28;20036;-60
2023/02/08 00:14:03;;;;;;;44.90;22.58;;;-0.60;99.90;;;;;;5110716;28;20092;-64
2023/02/08 00:16:28;;;;;;;54.05;24.80;;;-0.60;99.90;;;;;;5103250;28;20491;-64
2023/02/08 00:18:55;;;;;;;51.85;24.00;;;-0.60;99.90;;;;;;5110685;28;20038;-63
2023/02/08 00:21:21;;;;;;;48.92;23.67;;;-0.70;99.90;;;;;;5103360;28;20048;-63
2023/02/08 00:23:47;;;;;;;47.28;22.35;;;-0.70;99.90;;;;;;5104855;28;20028;-63
2023/02/08 00:26:14;;;;;;;39.78;19.00;;;-0.70;99.90;;;;;;5090097;28;20120;-63
2023/02/08 00:28:39;;;;;;;37.67;20.38;;;-0.70;99.90;;;;;;5092400;28;20122;-63
2023/02/08 00:31:05;;;;;;;31.73;18.33;;;-0.70;99.90;;;;;;5110733;28;20116;-63
2023/02/08 00:33:31;;;;;;;33.13;17.73;;;-0.70;99.90;;;;;;5075351;28;20457;-63
2023/02/08 00:36:06;;;;;;;35.83;17.83;;;-0.70;99.90;;;;;;5109815;28;20436;-63
2023/02/08 00:38:32;;;;;;;33.40;17.75;;;-0.70;99.90;;;;;;5110366;28;20085;-62
2023/02/08 00:40:58;;;;;;;28.42;16.65;;;-0.70;99.90;;;;;;5089200;28;20043;-62
2023/02/08 00:43:24;;;;;;;30.00;16.58;;;-0.80;99.90;;;;;;5088627;28;20028;-63
2023/02/08 00:45:54;;;;;;;29.05;15.48;;;-0.80;99.90;;;;;;5091911;28;20439;-63
2023/02/08 00:48:20;;;;;;;29.10;15.88;;;0.40;99.90;;;;;;5101335;28;20032;-62
2023/02/08 00:50:57;;;;;;;27.27;15.30;;;-0.80;99.90;;;;;;5085435;28;20070;-63
2023/02/08 00:53:23;;;;;;;24.45;14.68;;;-0.80;99.90;;;;;;5100740;28;21155;-63
2023/02/08 00:55:52;;;;;;;26.70;14.82;;;-0.80;99.90;;;;;;5095359;28;20036;-63
2023/02/08 00:58:18;;;;;;;29.63;15.13;;;0.10;99.90;;;;;;5101873;28;20024;-63
2023/02/08 01:00:44;;;;;;;24.25;15.00;;;-0.90;99.90;;;;;;5106446;28;20429;-63
2023/02/08 01:03:09;;;;;;;25.17;14.80;;;-0.90;99.90;;;;;;5107720;28;20050;-63
2023/02/08 01:05:37;;;;;;;24.33;13.98;;;-0.90;99.90;;;;;;5109331;28;20036;-62
2023/02/08 01:08:03;;;;;;;28.88;15.48;;;-0.90;99.90;;;;;;5106413;28;20036;-62
2023/02/08 01:10:29;;;;;;;25.85;14.60;;;-0.90;99.90;;;;;;5094955;28;20069;-63
2023/02/08 01:12:54;;;;;;;26.45;15.20;;;-0.90;99.90;;;;;;5109495;28;20082;-63
2023/02/08 01:15:20;;;;;;;27.55;14.93;;;-0.90;99.90;;;;;;5084596;28;20042;-64
2023/02/08 01:17:45;;;;;;;24.98;14.35;;;-0.90;99.90;;;;;;5109376;28;20032;-64
2023/02/08 01:20:11;;;;;;;22.25;13.32;;;-0.90;99.90;;;;;;5111303;28;20040;-62
2023/02/08 01:22:37;;;;;;;25.63;15.00;;;-0.90;99.90;;;;;;5111668;28;20168;-63
2023/02/08 01:25:03;;;;;;;24.83;14.50;;;-1.00;99.90;;;;;;5102983;28;20114;-63
2023/02/08 01:27:28;;;;;;;27.17;14.95;;;-1.00;99.90;;;;;;5106267;28;20050;-63
2023/02/08 01:29:54;;;;;;;26.73;15.40;;;-1.00;99.90;;;;;;5112914;28;20092;-63
2023/02/08 01:32:20;;;;;;;24.27;14.70;;;-1.00;99.90;;;;;;5113310;28;20040;-62
2023/02/08 01:34:45;;;;;;;26.17;14.77;;;-1.00;99.90;;;;;;5110512;28;20126;-63
2023/02/08 01:37:11;;;;;;;25.23;15.10;;;-1.00;99.90;;;;;;5099154;28;20030;-63
2023/02/08 01:39:36;;;;;;;26.48;15.35;;;-0.90;99.90;;;;;;5102414;28;20050;-62
2023/02/08 01:42:02;;;;;;;27.25;15.23;;;-1.00;99.90;;;;;;5111972;28;20028;-63
2023/02/08 01:45:03;;;;;;;27.08;15.57;;;-0.90;99.90;;;;;;5113694;28;20031;-62
2023/02/08 01:47:29;;;;;;;29.15;16.20;;;-1.00;99.90;;;;;;5076547;28;20050;-63
2023/02/08 01:49:55;;;;;;;27.10;14.88;;;-1.00;99.90;;;;;;5110678;28;20389;-63
2023/02/08 01:52:24;;;;;;;26.80;14.85;;;-1.00;99.90;;;;;;5113092;28;20032;-63
2023/02/08 01:55:19;;;;;;;25.33;14.55;;;-1.00;99.90;;;;;;5113163;28;20067;-60
2023/02/08 01:57:45;;;;;;;28.88;15.25;;;-1.00;99.90;;;;;;5090348;28;20118;-61
2023/02/08 02:00:22;;;;;;;24.85;13.75;;;-1.00;99.90;;;;;;5109029;28;20565;-60
2023/02/08 02:02:52;;;;;;;27.85;14.55;;;-1.00;99.90;;;;;;5109629;28;20397;-61
2023/02/08 02:05:19;;;;;;;27.05;15.23;;;-1.10;99.90;;;;;;5090517;28;20047;-60
2023/02/08 02:07:45;;;;;;;24.60;14.73;;;-0.30;99.90;;;;;;5088528;28;20050;-60
2023/02/08 02:10:16;;;;;;;26.35;15.23;;;-1.00;99.90;;;;;;5112227;28;20032;-62
2023/02/08 02:12:43;;;;;;;24.70;14.95;;;-1.10;99.90;;;;;;5084629;28;20085;-60
2023/02/08 02:15:09;;;;;;;26.02;16.33;;;-1.00;99.90;;;;;;5093740;28;20051;-64
2023/02/08 02:17:36;;;;;;;28.17;15.68;;;-1.10;99.90;;;;;;5105198;28;20036;-64
2023/02/08 02:20:17;;;;;;;29.45;15.23;;;-1.00;99.90;;;;;;5103413;28;20092;-60
2023/02/08 02:23:20;;;;;;;26.45;15.77;;;-1.00;99.90;;;;;;5112654;28;20027;-60
2023/02/08 02:26:09;;;;;;;27.88;16.10;;;-1.00;99.90;;;;;;5087595;22;20510;-61
2023/02/08 02:28:54;;;;;;;24.80;14.00;;;-1.10;99.90;;;;;;5019098;28;20046;-61
2023/02/08 02:31:35;;;;;;;25.35;14.52;;;-1.10;99.90;;;;;;5020765;28;20499;-61
2023/02/08 02:34:32;;;;;;;30.23;14.50;;;-1.10;99.90;;;;;;5022596;28;20037;-60
2023/02/08 02:37:09;;;;;;;23.52;13.98;;;-1.10;99.90;;;;;;5012596;28;20124;-61
2023/02/08 02:40:01;;;;;;;26.75;14.63;;;-1.20;99.90;;;;;;5017774;28;20080;-61
2023/02/08 02:46:04;;;;;;;26.60;15.45;;;-1.20;99.90;;;;;;5012988;28;20140;-61
2023/02/08 02:48:41;;;;;;;29.77;15.10;;;-1.20;99.90;;;;;;5025175;28;20508;-61
2023/02/08 02:51:45;;;;;;;27.33;15.45;;;-1.20;99.90;;;;;;5003121;28;20503;-61
2023/02/08 02:54:13;;;;;;;;;;;-1.10;99.90;;;;;;5019634;28;20465;-62
2023/02/08 02:56:43;;;;;;;24.92;15.18;;;-1.10;99.90;;;;;;5019029;28;20383;-61
2023/02/08 02:59:10;;;;;;;29.13;16.15;;;-1.10;99.90;;;;;;5011854;28;20095;-62
2023/02/08 03:01:37;;;;;;;27.30;15.77;;;-1.10;99.90;;;;;;5018879;28;20064;-65
2023/02/08 03:04:18;;;;;;;27.67;15.57;;;-1.10;99.90;;;;;;5007805;28;20038;-62
2023/02/08 03:07:01;;;;;;;26.27;15.82;;;-1.10;99.90;;;;;;5010007;28;20298;-61
2023/02/08 03:09:29;;;;;;;;;;;-1.20;99.90;;;;;;4997705;28;20116;-62
2023/02/08 03:12:17;;;;;;;28.20;15.32;;;-1.20;99.90;;;;;;4995282;28;19918;-61
2023/02/08 03:15:16;;;;;;;30.42;16.02;;;-1.20;99.90;;;;;;5025038;28;20100;-62
2023/02/08 03:18:15;;;;;;;25.40;15.57;;;-1.20;99.90;;;;;;5018252;28;20053;-61
2023/02/08 03:20:45;;;;;;;29.17;15.32;;;-1.20;99.90;;;;;;5015814;28;20068;-62
2023/02/08 03:23:30;;;;;;;26.88;15.07;;;-1.20;99.90;;;;;;5009207;28;20041;-61
2023/02/08 03:26:14;;;;;;;27.73;15.68;;;-1.20;99.90;;;;;;5017533;28;20132;-62
2023/02/08 03:28:49;;;;;;;28.40;16.25;;;-1.20;99.90;;;;;;5006862;28;20076;-61
2023/02/08 03:31:40;;;;;;;27.52;15.93;;;-1.20;99.90;;;;;;5005180;28;20042;-62
2023/02/08 03:34:14;;;;;;;26.55;15.43;;;-1.30;99.90;;;;;;5017491;28;20081;-61
2023/02/08 03:36:58;;;;;;;26.40;15.35;;;-1.30;99.90;;;;;;5016156;28;20451;-61
2023/02/08 03:39:27;;;;;;;25.35;14.52;;;-1.30;99.90;;;;;;5015937;28;20069;-62
2023/02/08 03:41:57;;;;;;;26.40;14.80;;;-1.30;99.90;;;;;;5017545;28;20393;-64
2023/02/08 03:44:31;;;;;;;25.88;14.85;;;-1.30;99.90;;;;;;5017902;28;20253;-61
2023/02/08 03:47:09;;;;;;;28.77;15.38;;;-1.30;99.90;;;;;;5004231;28;20071;-60
2023/02/08 03:49:37;;;;;;;24.73;15.25;;;-1.30;99.90;;;;;;5004643;28;20522;-62
2023/02/08 03:52:07;;;;;;;27.15;16.08;;;-1.30;99.90;;;;;;5011819;28;20041;-64
2023/02/08 03:54:38;;;;;;;26.63;15.65;;;-1.40;99.90;;;;;;5016479;28;20069;-61
2023/02/08 03:57:43;;;;;;;24.50;14.95;;;-1.40;99.90;;;;;;5017126;28;20034;-62
2023/02/08 04:00:12;;;;;;;26.42;14.50;;;-1.40;99.90;;;;;;5004502;28;20499;-61
2023/02/08 04:02:44;;;;;;;25.73;14.75;;;-1.40;99.90;;;;;;5022811;28;20119;-61
2023/02/08 04:05:11;;;;;;;24.30;14.07;;;-1.40;99.90;;;;;;5013114;28;20041;-62
2023/02/08 04:07:36;;;;;;;29.55;15.85;;;-1.40;99.90;;;;;;5014999;28;20046;-62
2023/02/08 04:10:03;;;;;;;27.48;16.23;;;-1.40;99.90;;;;;;5013162;28;20385;-63
2023/02/08 04:12:29;;;;;;;25.40;13.95;;;-1.40;99.90;;;;;;5021958;28;20104;-61
2023/02/08 04:14:55;;;;;;;25.55;14.27;;;-1.40;99.90;;;;;;5015952;28;20487;-62
2023/02/08 04:17:20;;;;;;;22.45;14.20;;;-1.40;99.90;;;;;;5010573;28;20041;-62
2023/02/08 04:19:46;;;;;;;25.15;14.73;;;-1.50;99.90;;;;;;5018643;28;20042;-61
2023/02/08 04:22:11;;;;;;;25.70;14.25;;;-1.50;99.90;;;;;;5007157;28;20403;-62
2023/02/08 04:24:37;;;;;;;27.77;14.52;;;-1.50;99.90;;;;;;5016748;28;20045;-61
2023/02/08 04:27:03;;;;;;;24.65;14.93;;;-1.60;99.90;;;;;;5014484;28;20052;-62
2023/02/08 04:29:29;;;;;;;26.98;14.82;;;-1.50;99.90;;;;;;5023954;28;20033;-62
2023/02/08 04:31:54;;;;;;;27.02;15.10;;;-1.50;99.90;;;;;;5014856;28;20108;-64
2023/02/08 04:34:20;;;;;;;26.05;14.77;;;-1.60;99.90;;;;;;5020040;28;20033;-61
2023/02/08 04:36:45;;;;;;;25.67;15.05;;;-1.60;99.90;;;;;;5021570;28;20040;-61
2023/02/08 04:39:11;;;;;;;26.77;14.68;;;-1.60;99.90;;;;;;5013003;28;20502;-62
2023/02/08 04:41:37;;;;;;;24.52;14.75;;;-1.60;99.90;;;;;;5003435;28;20041;-63
2023/02/08 04:44:02;;;;;;;29.05;16.33;;;-1.60;99.90;;;;;;5014928;28;20099;-61
2023/02/08 04:46:28;;;;;;;28.35;15.77;;;-1.60;99.90;;;;;;5018726;28;20034;-62
2023/02/08 04:48:53;;;;;;;28.90;15.23;;;-1.50;99.90;;;;;;5008754;28;20096;-62
2023/02/08 04:51:19;;;;;;;28.48;15.95;;;-1.50;99.90;;;;;;5027630;28;20037;-64
2023/02/08 04:53:45;;;;;;;29.58;15.63;;;-1.60;99.90;;;;;;5029635;28;20053;-62
2023/02/08 04:56:10;;;;;;;28.98;15.93;;;-1.60;99.90;;;;;;5027866;28;20128;-61
2023/02/08 04:58:36;;;;;;;25.75;14.38;;;-1.60;99.90;;;;;;5016297;28;20041;-62
2023/02/08 05:01:06;;;;;;;27.73;15.45;;;-1.60;99.90;;;;;;5009128;28;20045;-64
2023/02/08 05:03:32;;;;;;;28.90;16.10;;;-1.60;99.90;;;;;;5015860;28;20037;-62
2023/02/08 05:05:58;;;;;;;31.05;16.63;;;-1.50;99.90;;;;;;5000113;28;20120;-66
2023/02/08 05:08:25;;;;;;;30.92;16.58;;;-1.50;99.90;;;;;;5017771;28;20113;-61
2023/02/08 05:10:51;;;;;;;30.08;17.05;;;-1.50;99.90;;;;;;5020997;28;20057;-61
2023/02/08 05:13:16;;;;;;;32.28;16.67;;;-1.50;99.90;;;;;;5016124;28;20038;-61
2023/02/08 05:15:43;;;;;;;31.92;16.27;;;-1.50;99.90;;;;;;5013658;28;20076;-62
2023/02/08 05:18:08;;;;;;;30.13;16.73;;;-1.50;99.90;;;;;;5016697;28;20033;-61
2023/02/08 05:20:34;;;;;;;30.48;16.83;;;-1.50;99.90;;;;;;5019311;28;20415;-62
2023/02/08 05:23:00;;;;;;;28.42;16.48;;;-1.50;99.90;;;;;;5014256;28;20401;-65
2023/02/08 05:25:25;;;;;;;31.00;17.63;;;-1.50;99.90;;;;;;5023053;28;20033;-64
2023/02/08 05:27:51;;;;;;;29.08;16.60;;;-1.50;99.90;;;;;;5018820;28;20478;-61
2023/02/08 05:30:17;;;;;;;28.70;16.40;;;-1.50;99.90;;;;;;5013849;28;20038;-61
2023/02/08 05:32:42;;;;;;;28.48;16.70;;;-1.50;99.90;;;;;;5012911;28;20053;-62
2023/02/08 05:35:08;;;;;;;31.70;17.33;;;-1.40;99.90;;;;;;5018175;28;20049;-60
2023/02/08 05:37:34;;;;;;;30.83;16.70;;;-1.40;99.90;;;;;;5012580;28;20042;-61
2023/02/08 05:39:59;;;;;;;30.80;17.02;;;-1.40;99.90;;;;;;5004913;28;20519;-60
2023/02/08 05:42:25;;;;;;;28.67;16.65;;;-1.40;99.90;;;;;;5014967;28;20044;-60
2023/02/08 05:44:52;;;;;;;27.92;16.08;;;-1.40;99.90;;;;;;5020803;28;20121;-61
2023/02/08 05:47:18;;;;;;;30.65;16.52;;;-1.40;99.90;;;;;;5014320;28;20034;-60
2023/02/08 05:49:43;;;;;;;29.75;17.75;;;-1.50;99.90;;;;;;5027854;28;20041;-62
2023/02/08 05:52:09;;;;;;;32.22;17.52;;;-1.50;99.90;;;;;;5019952;28;20038;-63
2023/02/08 05:54:34;;;;;;;32.85;17.70;;;-1.50;99.90;;;;;;5024013;28;20108;-62
2023/02/08 05:57:00;;;;;;;32.53;16.88;;;-1.50;99.90;;;;;;5039647;28;20029;-61
2023/02/08 05:59:26;;;;;;;32.58;17.13;;;-1.50;99.90;;;;;;5013225;28;20041;-61
2023/02/08 06:01:51;;;;;;;32.65;16.98;;;-1.50;99.90;;;;;;5024654;28;20365;-62
2023/02/08 06:04:17;;;;;;;30.48;16.83;;;-1.50;99.90;;;;;;5005136;28;20037;-62
2023/02/08 06:06:43;;;;;;;31.60;17.48;;;-1.50;99.90;;;;;;5017595;28;20033;-61
2023/02/08 06:09:08;;;;;;;33.05;16.63;;;-1.50;99.90;;;;;;5016168;28;20034;-61
2023/02/08 06:11:35;;;;;;;33.13;17.60;;;-1.50;99.90;;;;;;5023114;28;20116;-60
2023/02/08 06:14:01;;;;;;;30.13;17.00;;;-1.50;99.90;;;;;;5022732;28;20046;-61
2023/02/08 06:16:27;;;;;;;38.28;18.35;;;-1.50;99.90;;;;;;5004848;28;20041;-61
2023/02/08 06:18:53;;;;;;;30.58;17.05;;;-1.50;99.90;;;;;;5023823;28;20040;-61
2023/02/08 06:21:19;;;;;;;30.95;17.08;;;-1.50;99.90;;;;;;5007445;28;20100;-60
2023/02/08 06:23:44;;;;;;;26.38;15.85;;;-1.50;99.90;;;;;;5015904;28;20033;-61
2023/02/08 06:26:10;;;;;;;29.98;17.95;;;-1.50;99.90;;;;;;5000782;28;20041;-63
2023/02/08 06:28:36;;;;;;;31.38;16.95;;;-1.50;99.90;;;;;;5006238;28;20045;-61
2023/02/08 06:31:01;;;;;;;29.98;17.10;;;-1.50;99.90;;;;;;5017204;28;20137;-61
2023/02/08 06:33:27;;;;;;;33.40;16.85;;;-0.20;99.90;;;;;;5018401;28;20488;-61
2023/02/08 06:35:53;;;;;;;32.03;16.40;;;-1.50;99.90;;;;;;5013581;28;20034;-62
2023/02/08 06:38:19;;;;;;;29.40;16.45;;;-1.50;99.90;;;;;;5008571;28;20128;-61
2023/02/08 06:40:49;;;;;;;30.75;16.73;;;-1.50;99.90;;;;;;5017351;28;20108;-61
2023/02/08 06:43:15;;;;;;;28.30;16.08;;;-1.60;99.90;;;;;;5022458;28;20037;-62
2023/02/08 06:45:43;;;;;;;30.40;16.17;;;-1.60;99.90;;;;;;5006475;28;20042;-64
2023/02/08 06:48:09;;;;;;;28.92;16.83;;;-1.60;99.90;;;;;;5020727;28;20383;-60
2023/02/08 06:50:36;;;;;;;31.23;16.52;;;-1.90;99.90;;;;;;5012045;28;20046;-62
2023/02/08 06:53:02;;;;;;;30.45;17.13;;;-1.70;99.90;;;;;;5017804;28;20049;-61
2023/02/08 06:55:28;;;;;;;31.92;16.85;;;-1.60;99.90;;;;;;5020070;28;20399;-61
2023/02/08 06:57:54;;;;;;;35.28;17.55;;;-1.70;99.90;;;;;;5018091;28;20046;-61
2023/02/08 07:00:20;;;;;;;30.63;17.30;;;-1.70;99.90;;;;;;5017147;28;20056;-61
2023/02/08 07:02:48;;;;;;;30.90;17.27;;;-1.70;99.90;;;;;;5009756;28;20128;-61
2023/02/08 07:05:14;;;;;;;29.58;16.55;;;-1.70;99.90;;;;;;5007758;28;20038;-61
2023/02/08 07:07:40;;;;;;;31.63;18.30;;;-1.70;99.90;;;;;;4999140;28;20133;-61
2023/02/08 07:10:06;;;;;;;30.45;17.17;;;-1.70;99.90;;;;;;5020593;28;20096;-61
2023/02/08 07:12:33;;;;;;;30.15;16.58;;;-1.60;99.90;;;;;;5025223;28;20480;-62
2023/02/08 07:14:59;;;;;;;34.80;17.70;;;-1.60;99.90;;;;;;5005677;28;20045;-62
2023/02/08 07:17:25;;;;;;;31.40;17.23;;;-1.60;99.90;;;;;;5017362;28;20389;-61
2023/02/08 07:19:50;;;;;;;30.10;16.65;;;-1.60;99.90;;;;;;5021785;28;20384;-62
2023/02/08 07:22:16;;;;;;;32.63;17.20;;;-1.70;99.90;;;;;;5026442;28;20038;-61
2023/02/08 07:24:42;;;;;;;35.10;17.85;;;-1.60;99.90;;;;;;5020565;28;20033;-62
2023/02/08 07:27:10;;;;;;;32.85;17.75;;;-1.60;99.90;;;;;;5017743;28;20037;-62
2023/02/08 07:29:36;;;;;;;37.72;18.55;;;-1.60;99.90;;;;;;5001120;28;20042;-62
2023/02/08 07:32:03;;;;;;;40.10;19.13;;;-1.60;99.90;;;;;;5022657;28;20132;-63
2023/02/08 07:34:32;;;;;;;37.55;20.65;;;-1.60;99.90;;;;;;5006448;28;20100;-61
2023/02/08 07:36:57;;;;;;;36.45;19.85;;;-1.60;99.90;;;;;;5009443;28;20041;-60
2023/02/08 07:39:23;;;;;;;37.92;20.35;;;-1.60;99.90;;;;;;5006496;28;20048;-61
2023/02/08 07:41:49;;;;;;;32.40;19.38;;;-1.60;99.90;;;;;;5007901;28;20045;-61
2023/02/08 07:44:15;;;;;;;34.72;18.58;;;-1.60;99.90;;;;;;5026427;28;20112;-62
2023/02/08 07:46:41;;;;;;;33.92;18.17;;;-2.10;99.90;;;;;;5026152;28;20033;-61
2023/02/08 07:49:07;;;;;;;37.55;19.17;;;-1.60;99.90;;;;;;5024168;28;20072;-62
2023/02/08 07:51:32;;;;;;;30.00;17.23;;;-1.60;99.90;;;;;;5013747;28;20161;-62
2023/02/08 07:53:58;;;;;;;34.40;18.02;;;-1.50;99.90;;;;;;5010828;28;20129;-65
2023/02/08 07:56:24;;;;;;;31.55;17.73;;;-1.50;99.90;;;;;;5010752;28;20202;-62
2023/02/08 07:58:49;;;;;;;32.30;17.15;;;-1.60;99.90;;;;;;5016455;28;20072;-61
2023/02/08 08:01:15;;;;;;;30.10;16.70;;;-1.60;99.90;;;;;;5011805;28;20038;-61
2023/02/08 08:03:41;;;;;;;32.80;17.77;;;-1.60;99.90;;;;;;5004269;28;20112;-63
2023/02/08 08:06:07;;;;;;;29.25;17.15;;;-1.50;99.90;;;;;;5018603;28;20047;-64
2023/02/08 08:08:32;;;;;;;29.63;16.70;;;-1.60;99.90;;;;;;5022065;28;20484;-61
2023/02/08 08:10:58;;;;;;;34.55;19.02;;;-1.50;99.90;;;;;;5018787;28;20033;-61
2023/02/08 08:13:24;;;;;;;38.53;20.58;;;-1.50;99.90;;;;;;5020165;28;20045;-61
2023/02/08 08:15:49;;;;;;;33.78;19.05;;;-1.50;99.90;;;;;;5018759;28;20128;-62
2023/02/08 08:18:15;;;;;;;32.97;18.77;;;-1.40;99.90;;;;;;5002803;28;20054;-62
2023/02/08 08:20:41;;;;;;;35.75;19.13;;;-1.40;99.90;;;;;;4999970;28;20049;-61
2023/02/08 08:23:06;;;;;;;36.78;19.40;;;-1.40;99.90;;;;;;5003271;28;20106;-61
2023/02/08 08:25:32;;;;;;;35.25;19.08;;;-1.30;99.90;;;;;;5022443;28;20385;-61
2023/02/08 08:27:58;;;;;;;33.25;19.73;;;-1.30;99.90;;;;;;5019987;28;20030;-63
2023/02/08 08:30:23;;;;;;;35.60;19.90;;;-1.20;99.90;;;;;;5023581;28;20041;-62
2023/02/08 08:32:49;;;;;;;36.67;19.90;;;-1.20;99.90;;;;;;5023287;28;20508;-62
2023/02/08 08:35:15;;;;;;;35.35;18.85;;;-1.20;99.90;;;;;;5006859;28;20312;-62
2023/02/08 08:37:40;;;;;;;39.60;20.17;;;-1.10;99.90;;;;;;5026963;28;20038;-62
2023/02/08 08:40:07;;;;;;;35.40;20.33;;;-1.10;99.90;;;;;;5028489;28;20038;-62
2023/02/08 08:42:33;;;;;;;35.92;20.27;;;-1.00;99.90;;;;;;5024694;28;20025;-62
2023/02/08 08:44:59;;;;;;;33.25;19.42;;;-1.00;99.90;;;;;;5008278;28;20049;-62
2023/02/08 08:47:25;;;;;;;31.45;18.15;;;-1.00;99.90;;;;;;5022488;28;20030;-62
2023/02/08 08:49:50;;;;;;;32.45;18.15;;;-1.00;99.90;;;;;;5020156;28;20472;-63
2023/02/08 08:52:17;;;;;;;35.08;18.88;;;-0.90;99.90;;;;;;5016695;28;20044;-63
2023/02/08 08:54:42;;;;;;;33.05;19.10;;;-0.90;99.90;;;;;;5021887;28;20045;-63
2023/02/08 08:57:08;;;;;;;39.95;21.52;;;-0.90;99.90;;;;;;5015897;28;20026;-62
2023/02/08 08:59:34;;;;;;;35.28;19.65;;;-0.90;99.90;;;;;;5019221;28;20513;-61
2023/02/08 09:01:59;;;;;;;35.30;20.15;;;-0.80;99.90;;;;;;5015537;28;20025;-62
2023/02/08 09:04:25;;;;;;;36.83;20.48;;;-0.80;99.90;;;;;;5014216;28;20034;-63
2023/02/08 09:06:52;;;;;;;30.65;19.50;;;-0.80;99.90;;;;;;5023667;28;20045;-62
2023/02/08 09:09:19;;;;;;;35.13;19.00;;;-0.70;99.90;;;;;;5016120;28;20179;-62
2023/02/08 09:11:45;;;;;;;35.88;20.20;;;-0.70;99.90;;;;;;5022116;28;20052;-63
2023/02/08 09:14:11;;;;;;;31.38;17.85;;;-0.70;99.90;;;;;;5021520;28;20041;-63
2023/02/08 09:16:40;;;;;;;33.50;19.33;;;-0.60;99.90;;;;;;5020810;28;20041;-63
2023/02/08 09:19:07;;;;;;;31.90;17.80;;;-0.60;99.90;;;;;;5005870;28;20045;-63
2023/02/08 09:21:33;;;;;;;31.38;17.50;;;-0.50;99.90;;;;;;5021172;28;20048;-64
2023/02/08 09:24:03;;;;;;;31.10;18.20;;;-0.50;99.90;;;;;;5022921;28;20034;-65
2023/02/08 09:26:29;;;;;;;30.55;17.38;;;-1.20;99.90;;;;;;5022864;28;20113;-62
2023/02/08 09:28:54;;;;;;;31.08;17.60;;;-0.40;99.90;;;;;;5018938;28;20109;-61
2023/02/08 09:31:25;;;;;;;35.60;18.55;;;-0.40;99.90;;;;;;5014704;28;20604;-62
2023/02/08 09:33:53;;;;;;;35.22;18.20;;;-0.30;99.90;;;;;;5025522;28;20105;-63
2023/02/08 09:36:20;;;;;;;32.55;18.23;;;-0.30;99.90;;;;;;5018174;28;20062;-62
2023/02/08 09:38:46;;;;;;;34.50;18.38;;;-0.20;99.90;;;;;;5026096;28;20399;-62
2023/02/08 09:41:37;;;;;;;32.97;18.40;;;-0.20;99.90;;;;;;5006619;28;20088;-62
2023/02/08 09:44:31;;;;;;;28.50;17.35;;;-0.10;99.90;;;;;;5022079;28;20107;-62
2023/02/08 09:46:59;;;;;;;28.10;17.10;;;-0.10;99.90;;;;;;5010779;28;20052;-61
2023/02/08 09:49:33;;;;;;;32.38;16.75;;;0.00;99.90;;;;;;5022953;28;20531;-60
2023/02/08 09:52:08;;;;;;;28.10;16.30;;;0.00;99.90;;;;;;5015243;28;20054;-62
2023/02/08 09:55:00;;;;;;;28.33;16.05;;;0.10;99.90;;;;;;5022456;28;20049;-61
2023/02/08 09:57:31;;;;;;;27.40;15.38;;;0.20;99.90;;;;;;5017670;28;20046;-61
2023/02/08 10:00:06;;;;;;;28.20;15.60;;;0.30;99.90;;;;;;5020147;28;20045;-62
2023/02/08 10:02:33;;;;;;;29.25;15.38;;;0.40;99.90;;;;;;5012164;28;20108;-61
2023/02/08 10:05:05;;;;;;;27.35;15.32;;;0.50;99.90;;;;;;5007338;28;20116;-62
2023/02/08 10:07:32;;;;;;;27.88;14.93;;;0.50;99.90;;;;;;5024146;28;20030;-62
2023/02/08 10:10:02;;;;;;;24.38;14.23;;;0.60;99.90;;;;;;5026268;28;20100;-61
2023/02/08 10:12:30;;;;;;;22.05;13.32;;;0.80;99.90;;;;;;5013332;28;20034;-61
2023/02/08 10:15:09;;;;;;;24.50;13.45;;;0.80;99.90;;;;;;5024835;28;20041;-61
2023/02/08 10:17:51;;;;;;;26.85;14.02;;;0.90;99.90;;;;;;5015326;28;20065;-63
2023/02/08 10:20:22;;;;;;;23.27;13.07;;;1.00;99.90;;;;;;5022717;28;20041;-63
2023/02/08 10:23:06;;;;;;;21.67;13.30;;;1.10;99.90;;;;;;5018709;28;20037;-61
2023/02/08 10:25:51;;;;;;;24.00;13.30;;;1.10;99.90;;;;;;5029848;28;20036;-61
2023/02/08 10:28:29;;;;;;;22.02;12.68;;;1.20;99.90;;;;;;5017684;28;20038;-61
2023/02/08 10:31:25;;;;;;;22.85;13.50;;;1.30;99.90;;;;;;5014476;28;20050;-61
2023/02/08 10:34:02;;;;;;;22.83;13.45;;;1.30;99.90;;;;;;5019137;28;20064;-61
2023/02/08 10:36:32;;;;;;;22.27;13.07;;;1.50;99.90;;;;;;5013754;28;20507;-61
2023/02/08 10:39:01;;;;;;;24.00;12.80;;;1.50;99.90;;;;;;5019300;28;20407;-61
2023/02/08 10:41:34;;;;;;;25.60;12.27;;;1.60;99.90;;;;;;5013462;28;20088;-61
2023/02/08 10:44:12;;;;;;;24.88;12.88;;;1.70;99.90;;;;;;5015517;28;20396;-61
2023/02/08 10:46:46;;;;;;;22.98;12.60;;;1.70;99.90;;;;;;5011691;28;20042;-62
2023/02/08 10:49:30;;;;;;;24.15;12.02;;;1.80;99.90;;;;;;5017807;28;20034;-62
2023/02/08 10:51:56;;;;;;;21.42;12.60;;;1.80;99.90;;;;;;5013856;28;20064;-62
2023/02/08 10:54:21;;;;;;;23.27;11.65;;;1.90;99.90;;;;;;5000158;28;20472;-62
2023/02/08 10:56:57;;;;;;;21.05;11.38;;;2.00;99.90;;;;;;5018360;28;20072;-61
2023/02/08 10:59:30;;;;;;;19.35;10.52;;;2.00;99.90;;;;;;5021700;28;20037;-62
2023/02/08 11:01:57;;;;;;;18.35;10.32;;;2.10;99.90;;;;;;5007296;28;20088;-62
2023/02/08 11:04:23;;;;;;;19.05;10.35;;;2.20;99.90;;;;;;4997014;28;20029;-62
2023/02/08 11:06:50;;;;;;;19.45;10.95;;;2.20;99.90;;;;;;5020065;28;20033;-60
2023/02/08 11:09:24;;;;;;;17.52;10.05;;;2.20;99.90;;;;;;5011990;28;20056;-62
2023/02/08 11:11:51;;;;;;;19.75;10.60;;;2.30;99.90;;;;;;5014765;28;20038;-61
2023/02/08 11:14:47;;;;;;;20.30;10.77;;;2.30;99.90;;;;;;4991168;28;20451;-62
2023/02/08 11:17:29;;;;;;;17.13;10.57;;;2.40;99.90;;;;;;4994526;28;20050;-62
2023/02/08 11:19:56;;;;;;;19.70;11.57;;;2.60;99.90;;;;;;5010386;28;20046;-62
2023/02/08 11:22:25;;;;;;;19.48;11.25;;;2.70;99.90;;;;;;5029234;28;20036;-62
2023/02/08 11:25:04;;;;;;;17.45;9.98;;;2.70;99.90;;;;;;5022898;28;20076;-63
2023/02/08 11:27:46;;;;;;;20.40;11.48;;;2.80;99.90;;;;;;5016737;28;20497;-62
2023/02/08 11:30:12;;;;;;;18.92;10.73;;;3.00;99.90;;;;;;5020575;28;20037;-62
2023/02/08 11:32:42;;;;;;;17.02;9.93;;;3.40;99.90;;;;;;5015914;28;20052;-62
2023/02/08 11:35:23;;;;;;;16.50;9.70;;;3.30;99.90;;;;;;5010641;28;20042;-62
2023/02/08 11:37:54;;;;;;;19.25;10.32;;;3.50;99.90;;;;;;5017699;28;20041;-62
2023/02/08 11:40:30;;;;;;;16.65;10.05;;;3.70;99.90;;;;;;5017095;28;20042;-62
2023/02/08 11:42:56;;;;;;;14.98;9.25;;;3.80;99.90;;;;;;4997967;28;20045;-62
2023/02/08 11:45:25;;;;;;;17.30;9.95;;;4.00;99.90;;;;;;5017612;28;20095;-62
2023/02/08 11:47:52;;;;;;;17.45;9.95;;;4.20;99.90;;;;;;5025698;28;20040;-62
2023/02/08 11:50:28;;;;;;;17.00;10.15;;;4.30;99.90;;;;;;5018479;28;20042;-62
2023/02/08 11:53:00;;;;;;;15.60;9.85;;;4.40;99.90;;;;;;5019322;28;20041;-62
2023/02/08 11:55:29;;;;;;;14.68;9.32;;;4.50;99.90;;;;;;5013796;28;20591;-63
2023/02/08 11:58:09;;;;;;;13.98;8.85;;;4.70;99.90;;;;;;5025580;28;20445;-62
2023/02/08 12:00:36;;;;;;;15.98;9.55;;;4.70;99.90;;;;;;5010866;28;20050;-62
2023/02/08 12:03:37;;;;;;;16.88;9.50;;;4.90;99.90;;;;;;5014083;28;20046;-62
2023/02/08 12:06:15;;;;;;;16.63;9.85;;;5.00;99.90;;;;;;5012921;28;20050;-62
2023/02/08 12:08:50;;;;;;;14.25;9.10;;;5.10;99.90;;;;;;5021033;28;20041;-62
2023/02/08 12:11:24;;;;;;;15.05;9.48;;;5.20;99.90;;;;;;5016621;28;20128;-61
2023/02/08 12:14:14;;;;;;;15.02;8.77;;;5.20;99.90;;;;;;5018697;28;20495;-62
2023/02/08 12:16:57;;;;;;;15.45;9.13;;;5.30;99.90;;;;;;5017135;28;20068;-62
2023/02/08 12:19:32;;;;;;;14.23;8.45;;;5.40;99.90;;;;;;5009828;28;20456;-62
2023/02/08 12:22:16;;;;;;;15.13;9.20;;;5.50;99.90;;;;;;5013157;28;20073;-62
2023/02/08 12:25:01;;;;;;;13.88;8.27;;;5.60;99.90;;;;;;5020101;28;20389;-62
2023/02/08 12:27:49;;;;;;;12.80;8.55;;;5.70;99.90;;;;;;5008289;28;20038;-62
2023/02/08 12:30:28;;;;;;;12.82;8.23;;;5.70;99.90;;;;;;5011453;28;20353;-62
2023/02/08 12:33:20;;;;;;;16.50;9.52;;;5.80;99.90;;;;;;5011761;28;20092;-62
2023/02/08 12:35:49;;;;;;;13.20;8.70;;;5.90;99.90;;;;;;5014711;28;20194;-62
2023/02/08 12:41:43;;;;;;;12.13;7.53;;;6.00;99.90;;;;;;5011411;28;20049;-62
2023/02/08 12:44:32;;;;;;;12.40;7.47;;;6.00;99.90;;;;;;4996050;28;20109;-62
2023/02/08 12:47:02;;;;;;;12.85;7.43;;;6.10;99.90;;;;;;5014158;28;20038;-62
2023/02/08 12:49:51;;;;;;;11.13;6.80;;;6.20;99.90;;;;;;5016110;28;20042;-62
2023/02/08 12:52:37;;;;;;;11.05;5.75;;;6.20;99.90;;;;;;5026893;28;20095;-62
2023/02/08 12:55:22;;;;;;;9.65;5.93;;;6.20;99.90;;;;;;5018424;28;20049;-62